sensor_id;sensor_type;location;lat;lon;timestamp;pressure;altitude;pressure_sealevel;temperature;humidity
59787;BME280;45672;51.612;5.536;2022-12-29T00:02:20;99873.69;;;10.00;100.00
59787;BME280;45672;51.612;5.536;2022-12-29T00:04:45;99880.19;;;9.97;100.00
59787;BME280;45672;51.612;5.536;2022-12-29T00:07:11;99882.97;;;10.04;100.00
59787;BME280;45672;51.612;5.536;2022-12-29T00:09:36;99881.31;;;10.03;100.00
59787;BME280;45672;51.612;5.536;2022-12-29T00:12:03;99864.19;;;10.06;100.00
59787;BME280;45672;51.612;5.536;2022-12-29T00:14:29;99871.00;;;10.08;100.00
59787;BME280;45672;51.612;5.536;2022-12-29T00:17:13;99875.81;;;10.05;100.00
59787;BME280;45672;51.612;5.536;2022-12-29T00:19:38;99875.50;;;10.08;100.00
59787;BME280;45672;51.612;5.536;2022-12-29T00:22:22;99862.19;;;10.08;100.00
59787;BME280;45672;51.612;5.536;2022-12-29T00:25:08;99843.34;;;9.94;100.00
59787;BME280;45672;51.612;5.536;2022-12-29T00:27:53;99851.41;;;9.78;100.00
59787;BME280;45672;51.612;5.536;2022-12-29T00:30:37;99847.94;;;9.69;100.00
59787;BME280;45672;51.612;5.536;2022-12-29T00:33:22;99854.78;;;9.63;100.00
59787;BME280;45672;51.612;5.536;2022-12-29T00:36:15;99853.31;;;9.61;100.00
59787;BME280;45672;51.612;5.536;2022-12-29T00:38:43;99856.47;;;9.56;100.00
59787;BME280;45672;51.612;5.536;2022-12-29T00:41:29;99850.03;;;9.51;100.00
59787;BME280;45672;51.612;5.536;2022-12-29T00:44:13;99861.00;;;9.47;100.00
59787;BME280;45672;51.612;5.536;2022-12-29T00:46:40;99856.22;;;9.43;100.00
59787;BME280;45672;51.612;5.536;2022-12-29T00:49:07;99847.28;;;9.36;100.00
59787;BME280;45672;51.612;5.536;2022-12-29T00:51:52;99835.03;;;9.26;100.00
59787;BME280;45672;51.612;5.536;2022-12-29T00:54:18;99828.22;;;9.24;100.00
59787;BME280;45672;51.612;5.536;2022-12-29T00:56:48;99829.59;;;9.20;100.00
59787;BME280;45672;51.612;5.536;2022-12-29T00:59:14;99829.59;;;9.20;100.00
59787;BME280;45672;51.612;5.536;2022-12-29T01:01:39;99825.28;;;9.19;100.00
59787;BME280;45672;51.612;5.536;2022-12-29T01:04:05;99829.72;;;9.18;100.00
59787;BME280;45672;51.612;5.536;2022-12-29T01:06:32;99819.28;;;9.17;100.00
59787;BME280;45672;51.612;5.536;2022-12-29T01:08:57;99810.34;;;9.18;100.00
59787;BME280;45672;51.612;5.536;2022-12-29T01:11:41;99814.50;;;9.20;100.00
59787;BME280;45672;51.612;5.536;2022-12-29T01:14:07;99814.50;;;9.20;100.00
59787;BME280;45672;51.612;5.536;2022-12-29T01:16:32;99803.88;;;9.20;100.00
59787;BME280;45672;51.612;5.536;2022-12-29T01:18:58;99789.44;;;9.23;100.00
59787;BME280;45672;51.612;5.536;2022-12-29T01:21:24;99793.72;;;9.24;100.00
59787;BME280;45672;51.612;5.536;2022-12-29T01:23:49;99791.56;;;9.27;100.00
59787;BME280;45672;51.612;5.536;2022-12-29T01:26:16;99787.91;;;9.28;100.00
59787;BME280;45672;51.612;5.536;2022-12-29T01:28:42;99794.72;;;9.31;100.00
59787;BME280;45672;51.612;5.536;2022-12-29T01:31:09;99789.06;;;9.34;100.00
59787;BME280;45672;51.612;5.536;2022-12-29T01:33:34;99786.22;;;9.36;100.00
59787;BME280;45672;51.612;5.536;2022-12-29T01:36:04;99770.94;;;9.38;100.00
59787;BME280;45672;51.612;5.536;2022-12-29T01:38:31;99775.75;;;9.42;100.00
59787;BME280;45672;51.612;5.536;2022-12-29T01:40:56;99773.91;;;9.43;100.00
59787;BME280;45672;51.612;5.536;2022-12-29T01:43:41;99770.09;;;9.45;100.00
59787;BME280;45672;51.612;5.536;2022-12-29T01:46:18;99756.13;;;9.43;100.00
59787;BME280;45672;51.612;5.536;2022-12-29T01:48:47;99780.34;;;9.48;100.00
59787;BME280;45672;51.612;5.536;2022-12-29T01:51:14;99768.84;;;9.56;100.00
59787;BME280;45672;51.612;5.536;2022-12-29T01:53:41;99781.25;;;9.64;100.00
59787;BME280;45672;51.612;5.536;2022-12-29T01:56:09;99773.41;;;9.71;100.00
59787;BME280;45672;51.612;5.536;2022-12-29T01:58:39;99775.19;;;9.78;100.00
59787;BME280;45672;51.612;5.536;2022-12-29T02:01:07;99773.31;;;9.87;100.00
59787;BME280;45672;51.612;5.536;2022-12-29T02:03:33;99770.09;;;9.92;100.00
59787;BME280;45672;51.612;5.536;2022-12-29T02:06:06;99770.41;;;9.97;100.00
59787;BME280;45672;51.612;5.536;2022-12-29T02:08:34;99766.22;;;10.03;100.00
59787;BME280;45672;51.612;5.536;2022-12-29T02:11:00;99777.44;;;10.13;100.00
59787;BME280;45672;51.612;5.536;2022-12-29T02:13:27;99777.91;;;10.16;100.00
59787;BME280;45672;51.612;5.536;2022-12-29T02:18:51;99776.00;;;10.25;100.00
59787;BME280;45672;51.612;5.536;2022-12-29T02:29:46;99778.25;;;10.37;100.00
59787;BME280;45672;51.612;5.536;2022-12-29T02:35:25;99789.09;;;10.50;100.00
59787;BME280;45672;51.612;5.536;2022-12-29T02:40:55;99769.13;;;10.54;100.00
59787;BME280;45672;51.612;5.536;2022-12-29T02:46:10;99774.63;;;10.52;100.00
59787;BME280;45672;51.612;5.536;2022-12-29T02:48:52;99772.63;;;10.55;100.00
59787;BME280;45672;51.612;5.536;2022-12-29T02:51:43;99769.97;;;10.55;100.00
59787;BME280;45672;51.612;5.536;2022-12-29T02:54:09;99769.13;;;10.54;100.00
59787;BME280;45672;51.612;5.536;2022-12-29T02:56:53;99772.97;;;10.51;100.00
59787;BME280;45672;51.612;5.536;2022-12-29T02:59:19;99766.19;;;10.49;100.00
59787;BME280;45672;51.612;5.536;2022-12-29T03:01:55;99776.97;;;10.47;100.00
59787;BME280;45672;51.612;5.536;2022-12-29T03:07:25;99764.91;;;10.45;100.00
59787;BME280;45672;51.612;5.536;2022-12-29T03:10:05;99755.44;;;10.42;100.00
59787;BME280;45672;51.612;5.536;2022-12-29T03:12:39;99755.44;;;10.42;100.00
59787;BME280;45672;51.612;5.536;2022-12-29T03:15:34;99766.09;;;10.42;100.00
59787;BME280;45672;51.612;5.536;2022-12-29T03:18:27;99755.81;;;10.39;100.00
59787;BME280;45672;51.612;5.536;2022-12-29T03:21:06;99759.47;;;10.38;100.00
59787;BME280;45672;51.612;5.536;2022-12-29T03:23:34;99754.16;;;10.38;100.00
59787;BME280;45672;51.612;5.536;2022-12-29T03:26:04;99764.78;;;10.38;100.00
59787;BME280;45672;51.612;5.536;2022-12-29T03:28:39;99755.34;;;10.35;100.00
59787;BME280;45672;51.612;5.536;2022-12-29T03:31:07;99757.00;;;10.37;100.00
59787;BME280;45672;51.612;5.536;2022-12-29T03:33:35;99750.00;;;10.35;100.00
59787;BME280;45672;51.612;5.536;2022-12-29T03:36:06;99762.31;;;10.37;100.00
59787;BME280;45672;51.612;5.536;2022-12-29T03:38:39;99748.03;;;10.38;100.00
59787;BME280;45672;51.612;5.536;2022-12-29T03:41:11;99750.69;;;10.38;100.00
59787;BME280;45672;51.612;5.536;2022-12-29T03:43:37;99744.03;;;10.33;100.00
59787;BME280;45672;51.612;5.536;2022-12-29T03:46:02;99743.56;;;10.30;100.00
59787;BME280;45672;51.612;5.536;2022-12-29T03:48:28;99746.56;;;10.27;100.00
59787;BME280;45672;51.612;5.536;2022-12-29T03:50:53;99753.06;;;10.24;100.00
59787;BME280;45672;51.612;5.536;2022-12-29T03:53:18;99752.63;;;10.21;100.00
59787;BME280;45672;51.612;5.536;2022-12-29T03:55:44;99747.81;;;10.16;100.00
59787;BME280;45672;51.612;5.536;2022-12-29T03:58:09;99741.06;;;10.13;100.00
59787;BME280;45672;51.612;5.536;2022-12-29T04:00:34;99759.38;;;10.08;100.00
59787;BME280;45672;51.612;5.536;2022-12-29T04:02:59;99756.22;;;10.05;100.00
59787;BME280;45672;51.612;5.536;2022-12-29T04:05:25;99736.44;;;10.07;100.00
59787;BME280;45672;51.612;5.536;2022-12-29T04:07:50;99760.53;;;10.06;100.00
59787;BME280;45672;51.612;5.536;2022-12-29T04:10:16;99762.75;;;10.02;100.00
59787;BME280;45672;51.612;5.536;2022-12-29T04:12:41;99759.97;;;9.95;100.00
59787;BME280;45672;51.612;5.536;2022-12-29T04:15:11;99771.28;;;9.89;100.00
59787;BME280;45672;51.612;5.536;2022-12-29T04:17:36;99759.38;;;9.85;100.00
59787;BME280;45672;51.612;5.536;2022-12-29T04:20:02;99750.16;;;9.73;100.00
59787;BME280;45672;51.612;5.536;2022-12-29T04:22:46;99764.88;;;9.52;100.00
59787;BME280;45672;51.612;5.536;2022-12-29T04:25:11;99771.13;;;9.36;100.00
59787;BME280;45672;51.612;5.536;2022-12-29T04:27:36;99777.97;;;9.22;100.00
59787;BME280;45672;51.612;5.536;2022-12-29T04:30:02;99776.53;;;9.11;100.00
59787;BME280;45672;51.612;5.536;2022-12-29T04:32:28;99766.94;;;9.02;100.00
59787;BME280;45672;51.612;5.536;2022-12-29T04:34:53;99771.09;;;8.96;100.00
59787;BME280;45672;51.612;5.536;2022-12-29T04:37:18;99768.47;;;8.88;100.00
59787;BME280;45672;51.612;5.536;2022-12-29T04:39:43;99780.28;;;8.86;100.00
59787;BME280;45672;51.612;5.536;2022-12-29T04:42:09;99774.28;;;8.84;100.00
59787;BME280;45672;51.612;5.536;2022-12-29T04:44:34;99785.91;;;8.83;100.00
59787;BME280;45672;51.612;5.536;2022-12-29T04:46:59;99787.22;;;8.87;100.00
59787;BME280;45672;51.612;5.536;2022-12-29T04:49:24;99780.91;;;8.88;100.00
59787;BME280;45672;51.612;5.536;2022-12-29T04:51:50;99769.50;;;8.87;100.00
59787;BME280;45672;51.612;5.536;2022-12-29T04:54:15;99792.34;;;8.88;100.00
59787;BME280;45672;51.612;5.536;2022-12-29T04:56:40;99785.22;;;8.89;100.00
59787;BME280;45672;51.612;5.536;2022-12-29T04:59:05;99800.97;;;8.90;100.00
59787;BME280;45672;51.612;5.536;2022-12-29T05:01:31;99810.25;;;8.94;100.00
59787;BME280;45672;51.612;5.536;2022-12-29T05:03:56;99821.34;;;8.98;100.00
59787;BME280;45672;51.612;5.536;2022-12-29T05:06:21;99812.03;;;9.02;100.00
59787;BME280;45672;51.612;5.536;2022-12-29T05:08:47;99813.38;;;9.06;100.00
59787;BME280;45672;51.612;5.536;2022-12-29T05:11:12;99817.19;;;9.04;100.00
59787;BME280;45672;51.612;5.536;2022-12-29T05:13:37;99820.50;;;9.06;100.00
59787;BME280;45672;51.612;5.536;2022-12-29T05:16:02;99836.59;;;9.04;100.00
59787;BME280;45672;51.612;5.536;2022-12-29T05:18:28;99828.13;;;9.09;100.00
59787;BME280;45672;51.612;5.536;2022-12-29T05:20:53;99837.25;;;9.06;100.00
59787;BME280;45672;51.612;5.536;2022-12-29T05:23:19;99835.75;;;9.04;100.00
59787;BME280;45672;51.612;5.536;2022-12-29T05:25:45;99848.38;;;9.02;100.00
59787;BME280;45672;51.612;5.536;2022-12-29T05:28:10;99848.19;;;9.03;100.00
59787;BME280;45672;51.612;5.536;2022-12-29T05:30:36;99857.50;;;8.99;100.00
59787;BME280;45672;51.612;5.536;2022-12-29T05:33:01;99860.81;;;9.01;100.00
59787;BME280;45672;51.612;5.536;2022-12-29T05:35:26;99853.84;;;9.08;100.00
59787;BME280;45672;51.612;5.536;2022-12-29T05:37:52;99860.28;;;9.14;100.00
59787;BME280;45672;51.612;5.536;2022-12-29T05:40:17;99857.75;;;9.21;100.00
59787;BME280;45672;51.612;5.536;2022-12-29T05:42:42;99855.44;;;9.26;100.00
59787;BME280;45672;51.612;5.536;2022-12-29T05:45:08;99872.69;;;9.30;100.00
59787;BME280;45672;51.612;5.536;2022-12-29T05:47:34;99864.38;;;9.33;100.00
59787;BME280;45672;51.612;5.536;2022-12-29T05:50:00;99868.53;;;9.36;100.00
59787;BME280;45672;51.612;5.536;2022-12-29T05:52:25;99874.00;;;9.34;100.00
59787;BME280;45672;51.612;5.536;2022-12-29T05:54:50;99873.66;;;9.37;100.00
59787;BME280;45672;51.612;5.536;2022-12-29T05:57:16;99865.03;;;9.35;100.00
59787;BME280;45672;51.612;5.536;2022-12-29T05:59:41;99869.00;;;9.39;100.00
59787;BME280;45672;51.612;5.536;2022-12-29T06:02:06;99877.63;;;9.41;100.00
59787;BME280;45672;51.612;5.536;2022-12-29T06:04:32;99885.25;;;9.44;99.68
59787;BME280;45672;51.612;5.536;2022-12-29T06:06:57;99885.56;;;9.49;100.00
59787;BME280;45672;51.612;5.536;2022-12-29T06:09:22;99877.25;;;9.53;98.57
59787;BME280;45672;51.612;5.536;2022-12-29T06:11:47;99864.63;;;9.55;98.55
59787;BME280;45672;51.612;5.536;2022-12-29T06:14:13;99886.19;;;9.60;97.24
59787;BME280;45672;51.612;5.536;2022-12-29T06:16:38;99865.41;;;9.63;97.27
59787;BME280;45672;51.612;5.536;2022-12-29T06:19:03;99869.25;;;9.61;96.72
59787;BME280;45672;51.612;5.536;2022-12-29T06:21:29;99879.88;;;9.61;96.71
59787;BME280;45672;51.612;5.536;2022-12-29T06:23:54;99885.66;;;9.64;96.82
59787;BME280;45672;51.612;5.536;2022-12-29T06:26:19;99856.78;;;9.61;96.75
59787;BME280;45672;51.612;5.536;2022-12-29T06:28:44;99869.91;;;9.63;95.93
59787;BME280;45672;51.612;5.536;2022-12-29T06:31:10;99880.19;;;9.58;96.15
59787;BME280;45672;51.612;5.536;2022-12-29T06:33:36;99864.63;;;9.55;95.94
59787;BME280;45672;51.612;5.536;2022-12-29T06:36:02;99860.28;;;9.54;96.38
59787;BME280;45672;51.612;5.536;2022-12-29T06:38:27;99870.09;;;9.53;95.55
59787;BME280;45672;51.612;5.536;2022-12-29T06:40:52;99858.84;;;9.51;95.50
59787;BME280;45672;51.612;5.536;2022-12-29T06:43:18;99860.00;;;9.48;95.08
59787;BME280;45672;51.612;5.536;2022-12-29T06:45:43;99851.06;;;9.49;95.17
59787;BME280;45672;51.612;5.536;2022-12-29T06:48:08;99874.28;;;9.47;95.14
59787;BME280;45672;51.612;5.536;2022-12-29T06:50:34;99855.34;;;9.51;94.16
59787;BME280;45672;51.612;5.536;2022-12-29T06:52:59;99856.66;;;9.55;93.38
59787;BME280;45672;51.612;5.536;2022-12-29T06:55:24;99864.44;;;9.56;93.80
59787;BME280;45672;51.612;5.536;2022-12-29T06:57:50;99857.31;;;9.57;93.54
59787;BME280;45672;51.612;5.536;2022-12-29T07:00:15;99857.50;;;9.55;94.06
59787;BME280;45672;51.612;5.536;2022-12-29T07:02:42;99857.81;;;9.52;94.17
59787;BME280;45672;51.612;5.536;2022-12-29T07:05:07;99871.28;;;9.51;94.26
59787;BME280;45672;51.612;5.536;2022-12-29T07:07:34;99858.00;;;9.51;94.68
59787;BME280;45672;51.612;5.536;2022-12-29T07:09:59;99873.56;;;9.54;93.83
59787;BME280;45672;51.612;5.536;2022-12-29T07:12:25;99868.75;;;9.57;93.97
59787;BME280;45672;51.612;5.536;2022-12-29T07:14:50;99875.84;;;9.65;93.70
59787;BME280;45672;51.612;5.536;2022-12-29T07:17:15;99878.00;;;9.70;92.65
59787;BME280;45672;51.612;5.536;2022-12-29T07:19:41;99890.78;;;9.74;92.32
59787;BME280;45672;51.612;5.536;2022-12-29T07:22:06;99894.75;;;9.78;90.88
59787;BME280;45672;51.612;5.536;2022-12-29T07:24:32;99893.91;;;9.78;91.66
59787;BME280;45672;51.612;5.536;2022-12-29T07:26:57;99892.91;;;9.79;91.36
59787;BME280;45672;51.612;5.536;2022-12-29T07:29:22;99895.91;;;9.76;90.87
59787;BME280;45672;51.612;5.536;2022-12-29T07:31:48;99902.75;;;9.70;89.68
59787;BME280;45672;51.612;5.536;2022-12-29T07:34:13;99915.31;;;9.76;90.50
59787;BME280;45672;51.612;5.536;2022-12-29T07:36:38;99925.94;;;9.76;89.87
59787;BME280;45672;51.612;5.536;2022-12-29T07:39:04;99911.53;;;9.71;89.32
59787;BME280;45672;51.612;5.536;2022-12-29T07:41:29;99918.03;;;9.68;89.25
59787;BME280;45672;51.612;5.536;2022-12-29T07:43:54;99921.19;;;9.63;89.04
59787;BME280;45672;51.612;5.536;2022-12-29T07:46:20;99930.03;;;9.56;89.52
59787;BME280;45672;51.612;5.536;2022-12-29T07:48:45;99931.00;;;9.55;87.69
59787;BME280;45672;51.612;5.536;2022-12-29T07:51:10;99924.72;;;9.56;87.76
59787;BME280;45672;51.612;5.536;2022-12-29T07:53:36;99922.41;;;9.53;87.82
59787;BME280;45672;51.612;5.536;2022-12-29T07:56:01;99933.31;;;9.58;87.34
59787;BME280;45672;51.612;5.536;2022-12-29T07:58:27;99939.59;;;9.65;88.06
59787;BME280;45672;51.612;5.536;2022-12-29T08:00:53;99939.09;;;9.70;87.38
59787;BME280;45672;51.612;5.536;2022-12-29T08:03:19;99936.09;;;9.73;87.63
59787;BME280;45672;51.612;5.536;2022-12-29T08:05:44;99941.25;;;9.74;87.32
59787;BME280;45672;51.612;5.536;2022-12-29T08:08:09;99949.22;;;9.74;87.80
59787;BME280;45672;51.612;5.536;2022-12-29T08:10:35;99951.88;;;9.74;88.43
59787;BME280;45672;51.612;5.536;2022-12-29T08:13:00;99953.22;;;9.70;88.70
59787;BME280;45672;51.612;5.536;2022-12-29T08:15:25;99950.91;;;9.67;88.95
59787;BME280;45672;51.612;5.536;2022-12-29T08:17:50;99953.72;;;9.65;89.17
59787;BME280;45672;51.612;5.536;2022-12-29T08:20:16;99963.19;;;9.68;89.48
59787;BME280;45672;51.612;5.536;2022-12-29T08:22:41;99959.34;;;9.71;88.98
59787;BME280;45672;51.612;5.536;2022-12-29T08:25:07;99955.50;;;9.73;88.99
59787;BME280;45672;51.612;5.536;2022-12-29T08:27:33;99951.00;;;9.82;88.70
59787;BME280;45672;51.612;5.536;2022-12-29T08:29:58;99942.19;;;9.90;86.85
59787;BME280;45672;51.612;5.536;2022-12-29T08:32:25;99951.63;;;9.92;85.37
59787;BME280;45672;51.612;5.536;2022-12-29T08:34:51;99962.56;;;9.97;85.36
59787;BME280;45672;51.612;5.536;2022-12-29T08:37:16;99963.06;;;10.01;84.50
59787;BME280;45672;51.612;5.536;2022-12-29T08:39:42;99962.53;;;10.06;84.11
59787;BME280;45672;51.612;5.536;2022-12-29T08:42:07;99946.59;;;10.06;83.87
59787;BME280;45672;51.612;5.536;2022-12-29T08:44:32;99958.03;;;10.06;83.10
59787;BME280;45672;51.612;5.536;2022-12-29T08:46:58;99953.75;;;10.05;83.42
59787;BME280;45672;51.612;5.536;2022-12-29T08:49:23;99967.66;;;10.07;83.37
59787;BME280;45672;51.612;5.536;2022-12-29T08:51:48;99955.06;;;10.09;83.20
59787;BME280;45672;51.612;5.536;2022-12-29T08:54:13;99961.81;;;10.12;83.34
59787;BME280;45672;51.612;5.536;2022-12-29T08:56:39;99933.44;;;10.12;82.54
59787;BME280;45672;51.612;5.536;2022-12-29T08:59:04;99960.16;;;10.19;82.23
59787;BME280;45672;51.612;5.536;2022-12-29T09:01:29;99954.97;;;10.17;82.47
59787;BME280;45672;51.612;5.536;2022-12-29T09:03:55;99959.13;;;10.20;81.87
59787;BME280;45672;51.612;5.536;2022-12-29T09:06:21;99961.44;;;10.23;81.91
59787;BME280;45672;51.612;5.536;2022-12-29T09:08:46;99946.63;;;10.29;82.50
59787;BME280;45672;51.612;5.536;2022-12-29T09:11:21;99965.91;;;10.31;83.07
59787;BME280;45672;51.612;5.536;2022-12-29T09:13:47;99965.22;;;10.29;81.35
59787;BME280;45672;51.612;5.536;2022-12-29T09:16:12;99968.91;;;10.28;82.15
59787;BME280;45672;51.612;5.536;2022-12-29T09:18:38;99977.69;;;10.28;81.90
59787;BME280;45672;51.612;5.536;2022-12-29T09:21:05;99980.19;;;10.30;82.25
59787;BME280;45672;51.612;5.536;2022-12-29T09:23:32;99977.03;;;10.34;82.42
59787;BME280;45672;51.612;5.536;2022-12-29T09:25:57;99983.50;;;10.32;83.06
59787;BME280;45672;51.612;5.536;2022-12-29T09:28:23;99981.00;;;10.30;84.23
59787;BME280;45672;51.612;5.536;2022-12-29T09:30:49;99986.84;;;10.26;84.58
59787;BME280;45672;51.612;5.536;2022-12-29T09:33:15;100006.16;;;10.20;86.44
59787;BME280;45672;51.612;5.536;2022-12-29T09:35:44;99998.28;;;9.95;89.31
59787;BME280;45672;51.612;5.536;2022-12-29T09:38:10;100002.84;;;9.78;90.10
59787;BME280;45672;51.612;5.536;2022-12-29T09:40:36;100003.84;;;9.77;89.97
59787;BME280;45672;51.612;5.536;2022-12-29T09:45:43;100038.66;;;9.90;87.99
59787;BME280;45672;51.612;5.536;2022-12-29T09:48:19;100020.22;;;9.97;88.61
59787;BME280;45672;51.612;5.536;2022-12-29T09:50:56;100020.72;;;9.92;90.14
59787;BME280;45672;51.612;5.536;2022-12-29T09:53:51;100019.25;;;9.90;90.13
59787;BME280;45672;51.612;5.536;2022-12-29T09:56:22;100030.69;;;9.90;90.02
59787;BME280;45672;51.612;5.536;2022-12-29T09:58:52;100036.53;;;9.77;92.00
59787;BME280;45672;51.612;5.536;2022-12-29T10:06:39;100060.47;;;9.61;94.07
59787;BME280;45672;51.612;5.536;2022-12-29T10:12:49;100063.97;;;9.45;95.75
59787;BME280;45672;51.612;5.536;2022-12-29T10:15:41;100066.66;;;9.37;96.78
59787;BME280;45672;51.612;5.536;2022-12-29T10:23:50;100082.88;;;9.34;98.09
59787;BME280;45672;51.612;5.536;2022-12-29T10:26:19;100087.72;;;9.38;98.31
59787;BME280;45672;51.612;5.536;2022-12-29T10:29:12;100094.66;;;9.39;99.00
59787;BME280;45672;51.612;5.536;2022-12-29T10:34:19;100090.69;;;9.27;100.00
59787;BME280;45672;51.612;5.536;2022-12-29T10:36:49;100112.75;;;9.27;100.00
59787;BME280;45672;51.612;5.536;2022-12-29T10:39:40;100119.56;;;9.30;100.00
59787;BME280;45672;51.612;5.536;2022-12-29T10:42:37;100119.22;;;9.33;100.00
59787;BME280;45672;51.612;5.536;2022-12-29T10:45:07;100121.88;;;9.33;100.00
59787;BME280;45672;51.612;5.536;2022-12-29T10:47:49;100132.50;;;9.33;100.00
59787;BME280;45672;51.612;5.536;2022-12-29T10:50:16;100134.34;;;9.32;100.00
59787;BME280;45672;51.612;5.536;2022-12-29T10:52:41;100138.78;;;9.32;100.00
59787;BME280;45672;51.612;5.536;2022-12-29T10:55:17;100131.69;;;9.32;100.00
59787;BME280;45672;51.612;5.536;2022-12-29T10:57:45;100133.16;;;9.27;100.00
59787;BME280;45672;51.612;5.536;2022-12-29T11:00:16;100142.44;;;9.23;100.00
59787;BME280;45672;51.612;5.536;2022-12-29T11:03:08;100151.06;;;9.25;100.00
59787;BME280;45672;51.612;5.536;2022-12-29T11:05:40;100147.44;;;9.26;100.00
59787;BME280;45672;51.612;5.536;2022-12-29T11:08:19;100162.19;;;9.28;100.00
59787;BME280;45672;51.612;5.536;2022-12-29T11:10:58;100160.03;;;9.32;100.00
59787;BME280;45672;51.612;5.536;2022-12-29T11:13:26;100177.13;;;9.38;100.00
59787;BME280;45672;51.612;5.536;2022-12-29T11:15:52;100175.66;;;9.43;100.00
59787;BME280;45672;51.612;5.536;2022-12-29T11:18:25;100168.84;;;9.49;100.00
59787;BME280;45672;51.612;5.536;2022-12-29T11:20:57;100165.03;;;9.52;100.00
59787;BME280;45672;51.612;5.536;2022-12-29T11:23:32;100179.13;;;9.52;100.00
59787;BME280;45672;51.612;5.536;2022-12-29T11:28:45;100183.78;;;9.42;100.00
59787;BME280;45672;51.612;5.536;2022-12-29T11:31:15;100194.94;;;9.45;100.00
59787;BME280;45672;51.612;5.536;2022-12-29T11:33:41;100190.09;;;9.49;99.76
59787;BME280;45672;51.612;5.536;2022-12-29T11:36:23;100209.53;;;9.49;99.43
59787;BME280;45672;51.612;5.536;2022-12-29T11:38:51;100196.56;;;9.46;99.51
59787;BME280;45672;51.612;5.536;2022-12-29T11:41:29;100202.88;;;9.54;99.21
59787;BME280;45672;51.612;5.536;2022-12-29T11:44:00;100189.59;;;9.54;98.55
59787;BME280;45672;51.612;5.536;2022-12-29T11:46:31;100200.91;;;9.64;97.97
59787;BME280;45672;51.612;5.536;2022-12-29T11:48:58;100198.41;;;9.71;96.99
59787;BME280;45672;51.612;5.536;2022-12-29T11:51:29;100218.19;;;9.68;96.96
59787;BME280;45672;51.612;5.536;2022-12-29T11:54:00;100214.53;;;9.69;96.92
59787;BME280;45672;51.612;5.536;2022-12-29T11:56:34;100212.53;;;9.71;97.02
59787;BME280;45672;51.612;5.536;2022-12-29T12:01:45;100220.03;;;9.84;95.81
59787;BME280;45672;51.612;5.536;2022-12-29T12:04:20;100224.84;;;9.89;95.47
59787;BME280;45672;51.612;5.536;2022-12-29T12:07:17;100228.66;;;9.86;95.72
59787;BME280;45672;51.612;5.536;2022-12-29T12:10:25;100221.53;;;9.87;96.63
59787;BME280;45672;51.612;5.536;2022-12-29T12:13:05;100220.03;;;9.84;96.23
59787;BME280;45672;51.612;5.536;2022-12-29T12:15:41;100218.00;;;9.86;95.49
59787;BME280;45672;51.612;5.536;2022-12-29T12:18:16;100216.84;;;9.89;94.82
59787;BME280;45672;51.612;5.536;2022-12-29T12:20:52;100222.50;;;9.86;94.77
59787;BME280;45672;51.612;5.536;2022-12-29T12:26:17;100224.81;;;9.80;94.46
59787;BME280;45672;51.612;5.536;2022-12-29T12:29:01;100221.16;;;9.73;94.50
59787;BME280;45672;51.612;5.536;2022-12-29T12:34:29;100220.19;;;9.74;93.71
59787;BME280;45672;51.612;5.536;2022-12-29T12:39:47;100229.31;;;9.80;93.47
59787;BME280;45672;51.612;5.536;2022-12-29T12:42:28;100234.13;;;9.84;92.65
59787;BME280;45672;51.612;5.536;2022-12-29T12:47:43;100225.50;;;9.99;91.11
59787;BME280;45672;51.612;5.536;2022-12-29T12:52:54;100224.66;;;9.98;91.16
59787;BME280;45672;51.612;5.536;2022-12-29T12:58:36;100230.16;;;10.05;90.46
59787;BME280;45672;51.612;5.536;2022-12-29T13:01:10;100230.47;;;10.10;89.55
59787;BME280;45672;51.612;5.536;2022-12-29T13:03:50;100248.25;;;10.18;87.06
59787;BME280;45672;51.612;5.536;2022-12-29T13:06:37;100237.44;;;10.20;87.70
59787;BME280;45672;51.612;5.536;2022-12-29T13:14:57;100242.78;;;10.20;86.46
59787;BME280;45672;51.612;5.536;2022-12-29T13:17:51;100259.38;;;10.22;85.84
59787;BME280;45672;51.612;5.536;2022-12-29T13:28:32;100251.66;;;9.36;97.41
59787;BME280;45672;51.612;5.536;2022-12-29T13:31:19;100259.41;;;9.21;98.35
59787;BME280;45672;51.612;5.536;2022-12-29T13:36:24;100273.00;;;8.84;100.00
59787;BME280;45672;51.612;5.536;2022-12-29T13:42:02;100270.06;;;8.60;100.00
59787;BME280;45672;51.612;5.536;2022-12-29T13:44:35;100278.50;;;8.56;100.00
59787;BME280;45672;51.612;5.536;2022-12-29T13:47:18;100275.47;;;8.51;100.00
59787;BME280;45672;51.612;5.536;2022-12-29T13:49:45;100272.00;;;8.50;100.00
59787;BME280;45672;51.612;5.536;2022-12-29T13:52:45;100283.41;;;8.51;100.00
59787;BME280;45672;51.612;5.536;2022-12-29T13:55:27;100273.94;;;8.48;100.00
59787;BME280;45672;51.612;5.536;2022-12-29T13:58:03;100270.06;;;8.42;100.00
59787;BME280;45672;51.612;5.536;2022-12-29T14:00:44;100271.34;;;8.38;100.00
59787;BME280;45672;51.612;5.536;2022-12-29T14:06:11;100275.00;;;8.37;100.00
59787;BME280;45672;51.612;5.536;2022-12-29T14:08:37;100280.81;;;8.41;100.00
59787;BME280;45672;51.612;5.536;2022-12-29T14:11:10;100288.06;;;8.49;100.00
59787;BME280;45672;51.612;5.536;2022-12-29T14:13:41;100287.75;;;8.52;100.00
59787;BME280;45672;51.612;5.536;2022-12-29T14:16:12;100295.38;;;8.55;100.00
59787;BME280;45672;51.612;5.536;2022-12-29T14:18:48;100290.28;;;8.61;100.00
59787;BME280;45672;51.612;5.536;2022-12-29T14:23:46;100286.03;;;8.69;100.00
59787;BME280;45672;51.612;5.536;2022-12-29T14:28:55;100283.38;;;8.69;100.00
59787;BME280;45672;51.612;5.536;2022-12-29T14:37:02;100288.72;;;8.77;100.00
59787;BME280;45672;51.612;5.536;2022-12-29T14:44:52;100306.75;;;8.73;100.00
59787;BME280;45672;51.612;5.536;2022-12-29T14:47:22;100296.72;;;8.59;100.00
59787;BME280;45672;51.612;5.536;2022-12-29T14:49:50;100298.69;;;8.57;100.00
59787;BME280;45672;51.612;5.536;2022-12-29T14:52:19;100302.50;;;8.54;100.00
59787;BME280;45672;51.612;5.536;2022-12-29T14:54:53;100299.38;;;8.59;100.00
59787;BME280;45672;51.612;5.536;2022-12-29T14:57:24;100309.69;;;8.62;100.00
59787;BME280;45672;51.612;5.536;2022-12-29T14:59:54;100311.34;;;8.63;100.00